Time;durP1;ratioP1;P1;durP2;ratioP2;P2;SDS_P1;SDS_P2;PMS_P1;PMS_P2;Temp;Humidity;BMP_temperature;BMP_pressure;BME280_temperature;BME280_humidity;BME280_pressure;Samples;Min_cycle;Max_cycle;Signal;HPM_P1;HPM_P2
2023/09/12 00:00:48;;;;;;;2.30;1.20;;;;;;;12.82;100.00;100323.67;104630;1264;66948;-50
2023/09/12 00:03:19;;;;;;;2.30;1.50;;;;;;;12.78;100.00;100324.77;105051;1263;73731;-50
2023/09/12 00:05:53;;;;;;;2.50;1.20;;;;;;;12.76;100.00;100325.09;105075;1260;61698;-50
2023/09/12 00:08:21;;;;;;;3.10;1.20;;;;;;;12.73;100.00;100322.88;104470;1261;60044;-50
2023/09/12 00:11:13;;;;;;;2.20;1.30;;;;;;;12.71;100.00;100326.73;104755;1257;71769;-50
2023/09/12 00:13:41;;;;;;;1.80;1.20;;;;;;;12.71;100.00;100326.59;104472;1262;66754;-50
2023/09/12 00:16:10;;;;;;;4.30;2.00;;;;;;;12.70;100.00;100326.06;108834;1257;72441;-52
2023/09/12 00:18:38;;;;;;;1.50;1.40;;;;;;;12.69;100.00;100329.36;108773;1256;60408;-52
2023/09/12 00:21:06;;;;;;;4.20;1.00;;;;;;;12.68;100.00;100329.26;108751;1257;58727;-52
2023/09/12 00:23:33;;;;;;;2.10;1.70;;;;;;;12.67;100.00;100327.16;108800;1256;71130;-53
2023/09/12 00:26:00;;;;;;;2.10;1.90;;;;;;;12.67;100.00;100327.16;108846;1256;66821;-51
2023/09/12 00:28:28;;;;;;;1.60;1.50;;;;;;;12.66;100.00;100328.27;109046;1254;72681;-52
2023/09/12 00:30:55;;;;;;;6.20;3.10;;;;;;;12.65;100.00;100330.84;109061;1253;60488;-52
2023/09/12 00:33:22;;;;;;;2.60;1.90;;;;;;;12.63;100.00;100326.96;109102;1256;58717;-53
2023/09/12 00:35:51;;;;;;;3.00;2.70;;;;;;;12.62;100.00;100327.56;109081;1257;73013;-51
2023/09/12 00:38:18;;;;;;;2.80;2.10;;;;;;;12.60;100.00;100326.20;109118;1254;65955;-51
2023/09/12 00:40:45;;;;;;;2.20;1.80;;;;;;;12.58;100.00;100325.42;109065;1254;73186;-52
2023/09/12 00:43:13;;;;;;;3.10;1.70;;;;;;;12.57;100.00;100323.33;109084;1254;61729;-52
2023/09/12 00:45:41;;;;;;;2.40;1.70;;;;;;;12.56;100.00;100327.33;108906;1254;60492;-52
2023/09/12 00:48:08;;;;;;;2.60;2.00;;;;;;;12.55;100.00;100328.98;109149;1251;74297;-52
2023/09/12 00:50:36;;;;;;;2.90;1.80;;;;;;;12.54;100.00;100327.39;109021;1254;66775;-52
2023/09/12 00:53:03;;;;;;;2.90;2.00;;;;;;;12.55;100.00;100327.01;109016;1251;72126;-52
2023/09/12 00:55:32;;;;;;;3.00;2.00;;;;;;;12.55;100.00;100325.20;107266;1251;60411;-51
2023/09/12 00:57:59;;;;;;;2.20;2.10;;;;;;;12.55;100.00;100323.40;104885;1251;60114;-50
2023/09/12 01:00:27;;;;;;;3.60;2.60;;;;;;;12.55;100.00;100326.98;105119;1256;72864;-51
2023/09/12 01:02:56;;;;;;;5.10;3.50;;;;;;;12.53;100.00;100328.32;105421;1256;67718;-51
2023/09/12 01:05:24;;;;;;;3.70;3.40;;;;;;;12.52;100.00;100326.40;105624;1254;71030;-50
2023/09/12 01:07:51;;;;;;;4.20;3.80;;;;;;;12.48;100.00;100324.61;104849;1258;60685;-51
2023/09/12 01:10:19;;;;;;;2.50;2.30;;;;;;;12.43;100.00;100325.20;104930;1260;59766;-50
2023/09/12 01:12:46;;;;;;;3.40;3.20;;;;;;;12.38;100.00;100324.20;104882;1255;72513;-51
2023/09/12 01:15:14;;;;;;;3.80;3.50;;;;;;;12.34;100.00;100325.27;104788;1254;68481;-50
2023/09/12 01:17:45;;;;;;;3.30;3.00;;;;;;;12.30;100.00;100326.02;106151;1254;71551;-50
2023/09/12 01:20:31;;;;;;;3.40;3.20;;;;;;;12.26;100.00;100322.25;105803;1254;60352;-51
2023/09/12 01:23:07;;;;;;;5.40;3.60;;;;;;;12.21;100.00;100318.17;107484;1251;59987;-49
2023/09/12 01:25:42;;;;;;;3.20;2.90;;;;;;;12.15;100.00;100323.30;104856;1260;73368;-49
2023/09/12 01:28:09;;;;;;;;;;;;;;;12.10;100.00;100319.52;105152;1251;65517;-52
2023/09/12 01:30:38;;;;;;;3.80;2.90;;;;;;;12.07;100.00;100324.71;104702;1258;72833;-50
2023/09/12 01:33:05;;;;;;;5.40;3.40;;;;;;;12.05;100.00;100326.06;105179;1260;60918;-51
2023/09/12 01:35:33;;;;;;;4.50;4.10;;;;;;;12.04;100.00;100322.71;108930;1251;59966;-52
2023/09/12 01:38:00;;;;;;;3.40;3.10;;;;;;;12.02;100.00;100324.06;106188;1256;72972;-49
2023/09/12 01:40:34;;;;;;;4.60;4.00;;;;;;;12.01;100.00;100328.58;104721;1259;66745;-50
2023/09/12 01:43:02;;;;;;;3.60;3.30;;;;;;;12.00;100.00;100326.09;108996;1251;71414;-53
2023/09/12 01:45:29;;;;;;;5.80;5.30;;;;;;;12.00;100.00;100325.03;106320;1251;59921;-51
2023/09/12 01:47:56;;;;;;;5.40;5.00;;;;;;;12.00;100.00;100324.68;105007;1260;59612;-51
2023/09/12 01:50:25;;;;;;;5.30;4.80;;;;;;;11.99;100.00;100325.42;104996;1257;73030;-51
2023/09/12 01:52:52;;;;;;;5.40;4.90;;;;;;;11.98;100.00;100322.64;104849;1254;65490;-51
2023/09/12 01:55:20;;;;;;;3.60;3.30;;;;;;;11.96;100.00;100322.52;105218;1253;70593;-49
2023/09/12 01:57:47;;;;;;;3.80;3.60;;;;;;;11.93;100.00;100319.79;109022;1254;60455;-51
2023/09/12 02:00:15;;;;;;;4.50;4.20;;;;;;;11.90;100.00;100324.09;106978;1257;60658;-49
2023/09/12 02:02:42;;;;;;;5.20;4.80;;;;;;;11.85;100.00;100320.30;104927;1259;73873;-50
2023/09/12 02:05:18;;;;;;;4.70;4.40;;;;;;;11.82;100.00;100323.70;105066;1257;65514;-50
2023/09/12 02:07:46;;;;;;;6.40;3.60;;;;;;;11.79;100.00;100318.60;106210;1253;72484;-51
2023/09/12 02:10:13;;;;;;;4.10;3.70;;;;;;;11.78;100.00;100318.11;104897;1260;62229;-49
2023/09/12 02:12:41;;;;;;;4.10;3.00;;;;;;;11.77;100.00;100316.52;105014;1255;60572;-50
2023/09/12 02:15:09;;;;;;;4.30;3.90;;;;;;;11.77;100.00;100316.36;105313;1254;73817;-50
2023/09/12 02:17:38;;;;;;;5.50;5.00;;;;;;;11.76;100.00;100316.04;105563;1254;66549;-51
2023/09/12 02:20:07;;;;;;;4.70;4.30;;;;;;;11.75;100.00;100318.42;106449;1254;72412;-50
2023/09/12 02:22:35;;;;;;;5.10;4.60;;;;;;;11.73;100.00;100320.27;105767;1253;61225;-49
2023/09/12 02:25:06;;;;;;;5.80;5.30;;;;;;;11.72;100.00;100320.70;105403;1257;60622;-50
2023/09/12 02:27:34;;;;;;;6.30;5.80;;;;;;;11.70;100.00;100321.32;105002;1257;72557;-49
2023/09/12 02:30:02;;;;;;;6.40;5.70;;;;;;;11.68;100.00;100320.34;105447;1254;65537;-51
2023/09/12 02:32:30;;;;;;;5.30;4.90;;;;;;;11.66;100.00;100323.30;106304;1259;72563;-50
2023/09/12 02:34:58;;;;;;;6.50;4.70;;;;;;;11.63;100.00;100322.55;104763;1253;60495;-49
2023/09/12 02:37:26;;;;;;;4.30;3.90;;;;;;;11.60;100.00;100321.38;105019;1254;60644;-50
2023/09/12 02:39:53;;;;;;;6.40;4.20;;;;;;;11.59;100.00;100321.63;105065;1255;72959;-49
2023/09/12 02:42:20;;;;;;;4.20;3.80;;;;;;;11.57;100.00;100324.79;104953;1254;72417;-49
2023/09/12 02:44:48;;;;;;;6.30;3.60;;;;;;;11.55;100.00;100323.96;105080;1254;71356;-49
2023/09/12 02:47:15;;;;;;;3.40;3.10;;;;;;;11.53;100.00;100318.48;104871;1254;60884;-49
2023/09/12 02:49:42;;;;;;;4.90;4.50;;;;;;;11.50;100.00;100325.95;104837;1260;60547;-50
2023/09/12 02:52:10;;;;;;;3.90;3.50;;;;;;;11.46;100.00;100324.52;104703;1255;74825;-50
2023/09/12 02:54:37;;;;;;;6.20;5.00;;;;;;;11.44;100.00;100325.68;104916;1254;66777;-50
2023/09/12 02:57:05;;;;;;;6.70;6.10;;;;;;;11.42;100.00;100324.88;104952;1254;72537;-50
2023/09/12 02:59:32;;;;;;;4.90;4.50;;;;;;;11.38;100.00;100323.79;104773;1254;60619;-50
2023/09/12 03:01:59;;;;;;;6.10;5.30;;;;;;;11.34;100.00;100323.20;107186;1255;58781;-49
2023/09/12 03:04:28;;;;;;;6.00;5.60;;;;;;;11.32;100.00;100325.30;105319;1255;72532;-49
2023/09/12 03:06:56;;;;;;;7.40;6.10;;;;;;;11.28;100.00;100327.61;109067;1254;66754;-52
2023/09/12 03:09:24;;;;;;;6.00;5.50;;;;;;;11.26;100.00;100329.67;108941;1254;73190;-51
2023/09/12 03:11:51;;;;;;;6.30;4.90;;;;;;;11.25;100.00;100331.69;106994;1256;60490;-50
2023/09/12 03:14:19;;;;;;;5.00;4.60;;;;;;;11.24;100.00;100329.75;104999;1257;60677;-49
2023/09/12 03:16:46;;;;;;;6.20;5.60;;;;;;;11.23;100.00;100326.36;104760;1254;72573;-50
2023/09/12 03:19:13;;;;;;;6.30;5.20;;;;;;;11.22;100.00;100328.58;104765;1254;66788;-50
2023/09/12 03:21:41;;;;;;;5.00;4.50;;;;;;;11.22;100.00;100330.04;104908;1260;71427;-49
2023/09/12 03:24:08;;;;;;;5.40;4.50;;;;;;;11.21;100.00;100334.77;104900;1258;60570;-50
2023/09/12 03:26:36;;;;;;;9.20;5.50;;;;;;;11.19;100.00;100336.98;104696;1256;61043;-50
2023/09/12 03:29:04;;;;;;;6.10;5.50;;;;;;;11.19;100.00;100339.50;104951;1257;72666;-50
2023/09/12 03:31:31;;;;;;;6.20;5.70;;;;;;;11.18;100.00;100336.14;104688;1254;67505;-50
2023/09/12 03:33:59;;;;;;;5.40;4.50;;;;;;;11.15;100.00;100340.90;104630;1254;71702;-50
2023/09/12 03:36:27;;;;;;;6.60;4.40;;;;;;;11.16;100.00;100341.25;108999;1253;60559;-51
2023/09/12 03:38:54;;;;;;;5.00;4.60;;;;;;;11.15;100.00;100340.21;109010;1253;60007;-52
2023/09/12 03:41:25;;;;;;;5.10;4.60;;;;;;;11.14;100.00;100342.40;108905;1254;72543;-52
2023/09/12 03:43:54;;;;;;;5.00;4.60;;;;;;;11.15;100.00;100341.47;109080;1253;65971;-51
2023/09/12 03:46:22;;;;;;;6.40;5.90;;;;;;;11.16;100.00;100339.09;109107;1253;72641;-51
2023/09/12 03:48:49;;;;;;;7.30;6.30;;;;;;;11.14;100.00;100335.39;109132;1254;60026;-52
2023/09/12 03:51:17;;;;;;;7.70;7.00;;;;;;;11.16;100.00;100339.81;109000;1253;59054;-51
2023/09/12 03:53:47;;;;;;;6.90;5.70;;;;;;;11.16;100.00;100337.27;108923;1256;73364;-51
2023/09/12 03:56:15;;;;;;;7.00;5.10;;;;;;;11.17;100.00;100338.70;108933;1259;67175;-53
2023/09/12 03:58:43;;;;;;;6.00;5.50;;;;;;;11.17;100.00;100335.10;106078;1259;73659;-53
2023/09/12 04:01:10;;;;;;;5.80;5.20;;;;;;;11.16;100.00;100338.17;105336;1254;60705;-52
2023/09/12 04:03:38;;;;;;;6.80;6.10;;;;;;;11.15;100.00;100337.49;104842;1257;60556;-50
2023/09/12 04:06:06;;;;;;;7.20;5.10;;;;;;;11.16;100.00;100338.70;106202;1254;72574;-52
2023/09/12 04:08:33;;;;;;;5.70;5.10;;;;;;;11.19;100.00;100338.77;104825;1257;66951;-51
2023/09/12 04:11:00;;;;;;;7.00;5.00;;;;;;;11.23;100.00;100336.63;104827;1257;72024;-50
2023/09/12 04:13:28;;;;;;;5.20;4.80;;;;;;;11.27;100.00;100336.30;104628;1253;61687;-51
2023/09/12 04:15:55;;;;;;;5.70;4.80;;;;;;;11.31;100.00;100339.71;104754;1257;60492;-50
2023/09/12 04:18:23;;;;;;;9.40;5.50;;;;;;;11.36;100.00;100342.75;104859;1259;73827;-50
2023/09/12 04:20:51;;;;;;;14.00;6.20;;;;;;;11.41;100.00;100343.26;105206;1253;65874;-50
2023/09/12 04:23:19;;;;;;;14.20;6.70;;;;;;;11.45;100.00;100344.16;104955;1256;70795;-50
2023/09/12 04:25:46;;;;;;;19.70;6.90;;;;;;;11.49;100.00;100348.12;105867;1252;61131;-49
2023/09/12 04:28:14;;;;;;;14.90;7.20;;;;;;;11.52;100.00;100345.65;105123;1254;59634;-51
2023/09/12 04:30:41;;;;;;;10.70;8.30;;;;;;;11.55;100.00;100346.05;104903;1254;72580;-51
2023/09/12 04:33:13;;;;;;;15.00;8.10;;;;;;;11.59;100.00;100349.98;104740;1254;65552;-49
2023/09/12 04:35:41;;;;;;;7.60;6.40;;;;;;;11.64;100.00;100346.55;104641;1257;72650;-49
2023/09/12 04:38:09;;;;;;;10.60;7.50;;;;;;;11.76;100.00;100343.35;104779;1254;61665;-48
2023/09/12 04:40:39;;;;;;;18.10;8.70;;;;;;;11.96;100.00;100347.16;105061;1253;60490;-50
2023/09/12 04:43:07;;;;;;;24.90;7.90;;;;;;;12.15;100.00;100342.52;105067;1253;71422;-48
2023/09/12 04:45:34;;;;;;;20.90;7.20;;;;;;;12.30;100.00;100337.87;104908;1259;68436;-49
2023/09/12 04:48:02;;;;;;;17.70;7.80;;;;;;;12.43;100.00;100339.96;104861;1254;72406;-49
2023/09/12 04:50:30;;;;;;;19.00;6.80;;;;;;;12.56;100.00;100339.55;105180;1254;60584;-48
2023/09/12 04:52:57;;;;;;;17.60;7.10;;;;;;;12.66;100.00;100337.27;105002;1257;61290;-50
2023/09/12 04:55:24;;;;;;;13.40;6.90;;;;;;;12.75;100.00;100334.86;104927;1254;73771;-49
2023/09/12 04:57:52;;;;;;;10.70;8.10;;;;;;;12.85;100.00;100339.05;105077;1254;67863;-50
2023/09/12 05:00:19;;;;;;;15.00;8.10;;;;;;;12.96;100.00;100343.21;105573;1253;73540;-49
2023/09/12 05:02:47;;;;;;;21.20;9.70;;;;;;;13.07;100.00;100341.24;104850;1259;60543;-50
2023/09/12 05:05:14;;;;;;;15.30;8.90;;;;;;;13.18;100.00;100335.29;105018;1254;60523;-48
2023/09/12 05:07:42;;;;;;;26.10;8.20;;;;;;;13.31;100.00;100335.17;105114;1259;72576;-50
2023/09/12 05:10:09;;;;;;;46.80;12.00;;;;;;;13.45;100.00;100336.43;104912;1257;67633;-51
2023/09/12 05:12:36;;;;;;;43.50;10.50;;;;;;;13.59;100.00;100336.79;105221;1253;71452;-50
2023/09/12 05:15:04;;;;;;;25.20;10.90;;;;;;;13.74;100.00;100333.89;104851;1253;61630;-51
2023/09/12 05:17:32;;;;;;;23.90;10.00;;;;;;;13.89;100.00;100333.83;104947;1253;60712;-51
2023/09/12 05:19:59;;;;;;;16.00;9.20;;;;;;;14.02;100.00;100332.72;104996;1253;72585;-49
2023/09/12 05:22:27;;;;;;;22.20;10.20;;;;;;;14.17;100.00;100329.20;104970;1254;65751;-49
2023/09/12 05:24:54;;;;;;;11.40;9.60;;;;;;;14.32;100.00;100332.95;105932;1257;73168;-49
2023/09/12 05:27:21;;;;;;;20.30;9.20;;;;;;;14.45;100.00;100331.88;104945;1253;60301;-50
2023/09/12 05:29:49;;;;;;;10.90;8.80;;;;;;;14.58;100.00;100330.43;105147;1257;60454;-49
2023/09/12 05:32:16;;;;;;;16.00;10.60;;;;;;;14.70;100.00;100330.65;104968;1253;72336;-48
2023/09/12 05:34:45;;;;;;;15.10;12.00;;;;;;;14.82;100.00;100332.48;106288;1254;66316;-49
2023/09/12 05:37:12;;;;;;;14.80;9.80;;;;;;;14.94;100.00;100325.89;104621;1253;71374;-49
2023/09/12 05:39:40;;;;;;;15.60;9.50;;;;;;;15.04;100.00;100324.89;104967;1253;62152;-50
2023/09/12 05:42:07;;;;;;;12.50;9.30;;;;;;;15.15;100.00;100325.73;104834;1257;60358;-50
2023/09/12 05:44:34;;;;;;;10.90;9.10;;;;;;;15.25;100.00;100326.94;104867;1253;72974;-49
2023/09/12 05:47:02;;;;;;;8.60;7.60;;;;;;;15.35;100.00;100328.86;104924;1255;65533;-51
2023/09/12 05:49:31;;;;;;;9.80;8.80;;;;;;;15.46;100.00;100328.95;104902;1253;70070;-52
2023/09/12 05:51:58;;;;;;;10.60;8.80;;;;;;;15.57;100.00;100327.25;104903;1257;62667;-50
2023/09/12 05:54:26;;;;;;;10.10;7.60;;;;;;;15.67;100.00;100324.81;104858;1256;60435;-51
2023/09/12 05:56:54;;;;;;;16.60;8.20;;;;;;;15.79;100.00;100332.60;104562;1257;75857;-51
2023/09/12 05:59:21;;;;;;;11.10;7.70;;;;;;;15.90;100.00;100332.13;104688;1256;66714;-51
2023/09/12 06:01:48;;;;;;;9.60;8.60;;;;;;;16.00;100.00;100332.77;105138;1256;72829;-51
2023/09/12 06:04:16;;;;;;;11.90;8.30;;;;;;;16.09;100.00;100336.73;104903;1253;62591;-50
2023/09/12 06:06:44;;;;;;;9.50;8.60;;;;;;;16.17;100.00;100334.38;108244;1254;60568;-51
2023/09/12 06:09:12;;;;;;;11.80;9.00;;;;;;;16.25;100.00;100339.33;105079;1253;73761;-50
2023/09/12 06:11:39;;;;;;;15.20;8.70;;;;;;;16.35;100.00;100338.20;105021;1256;66896;-49
2023/09/12 06:14:07;;;;;;;10.60;8.00;;;;;;;16.42;100.00;100340.08;105034;1257;72706;-50
2023/09/12 06:16:34;;;;;;;10.70;9.30;;;;;;;16.49;100.00;100338.21;104933;1253;60528;-50
2023/09/12 06:19:01;;;;;;;7.50;6.90;;;;;;;16.54;100.00;100339.89;105139;1252;60373;-51
2023/09/12 06:21:29;;;;;;;8.40;7.30;;;;;;;16.58;100.00;100342.33;105006;1256;74292;-51
2023/09/12 06:24:16;;;;;;;7.40;6.60;;;;;;;16.64;100.00;100344.71;105028;1257;65630;-49
2023/09/12 06:26:44;;;;;;;13.10;7.70;;;;;;;16.71;100.00;100345.18;109176;1252;71382;-52
2023/09/12 06:29:11;;;;;;;9.40;8.40;;;;;;;16.78;100.00;100350.51;109179;1252;60446;-50
2023/09/12 06:31:40;;;;;;;12.50;7.90;;;;;;;16.85;100.00;100351.52;109101;1253;58819;-50
2023/09/12 06:34:08;;;;;;;10.00;8.40;;;;;;;16.94;100.00;100354.19;109094;1252;72635;-50
2023/09/12 06:36:36;;;;;;;9.70;8.90;;;;;;;17.01;100.00;100354.03;109144;1253;68039;-50
2023/09/12 06:39:05;;;;;;;7.70;7.00;;;;;;;17.08;100.00;100354.90;109107;1253;72627;-50
2023/09/12 06:41:32;;;;;;;9.00;8.10;;;;;;;17.14;100.00;100349.77;109083;1253;60002;-50
2023/09/12 06:44:00;;;;;;;9.10;8.20;;;;;;;17.18;100.00;100352.59;109047;1253;58901;-51
2023/09/12 06:46:27;;;;;;;8.40;7.60;;;;;;;17.22;100.00;100355.41;109102;1253;73746;-51
2023/09/12 06:48:55;;;;;;;9.10;8.30;;;;;;;17.27;100.00;100352.49;109141;1253;66443;-51
2023/09/12 06:51:25;;;;;;;8.40;7.70;;;;;;;17.34;100.00;100358.36;109125;1252;73147;-50
2023/09/12 06:53:55;;;;;;;8.40;7.60;;;;;;;17.43;100.00;100352.57;108995;1256;61625;-51
2023/09/12 06:56:23;;;;;;;8.40;6.20;;;;;;;17.51;100.00;100352.73;106259;1253;60509;-51
2023/09/12 06:58:53;;;;;;;14.30;6.10;;;;;;;17.59;100.00;100351.63;104961;1257;73788;-51
2023/09/12 07:01:20;;;;;;;11.70;5.70;;;;;;;17.69;100.00;100354.42;105052;1253;67322;-49
2023/09/12 07:03:48;;;;;;;8.70;6.50;;;;;;;17.78;100.00;100353.66;104958;1257;71310;-52
2023/09/12 07:06:15;;;;;;;6.60;4.80;;;;;;;17.87;100.00;100352.70;105054;1253;60889;-51
2023/09/12 07:08:43;;;;;;;7.30;5.30;;;;;;;17.95;100.00;100351.04;104811;1253;60547;-51
2023/09/12 07:11:10;;;;;;;5.10;4.30;;;;;;;18.05;100.00;100350.12;104934;1253;72607;-51
2023/09/12 07:13:37;;;;;;;8.50;4.50;;;;;;;18.14;100.00;100351.83;104902;1253;66721;-53
2023/09/12 07:16:05;;;;;;;4.90;4.60;;;;;;;18.23;100.00;100351.38;104873;1253;73158;-51
2023/09/12 07:18:32;;;;;;;5.50;5.00;;;;;;;18.31;100.00;100348.64;105038;1253;60533;-51
2023/09/12 07:21:01;;;;;;;6.20;5.60;;;;;;;18.38;100.00;100349.42;105028;1256;60460;-52
2023/09/12 07:23:28;;;;;;;8.90;5.40;;;;;;;18.45;100.00;100346.54;105620;1253;72575;-51
2023/09/12 07:25:58;;;;;;;10.00;4.40;;;;;;;18.54;100.00;100349.04;104959;1257;66707;-51
2023/09/12 07:28:26;;;;;;;4.20;3.80;;;;;;;18.65;100.00;100353.52;105071;1254;71403;-51
2023/09/12 07:30:54;;;;;;;5.90;5.30;;;;;;;18.74;100.00;100351.59;105068;1254;60492;-51
2023/09/12 07:33:22;;;;;;;6.10;4.60;;;;;;;18.81;100.00;100348.31;105533;1257;60517;-51
2023/09/12 07:35:51;;;;;;;9.90;5.00;;;;;;;18.90;100.00;100351.80;105117;1256;76151;-50
2023/09/12 07:38:20;;;;;;;8.70;4.90;;;;;;;18.99;100.00;100354.84;104994;1256;64539;-52
2023/09/12 07:40:48;;;;;;;4.00;3.50;;;;;;;19.08;100.00;100357.46;104913;1253;71959;-52
2023/09/12 07:43:16;;;;;;;5.00;4.30;;;;;;;19.17;100.00;100354.77;104964;1253;60411;-51
2023/09/12 07:45:43;;;;;;;6.10;3.70;;;;;;;19.27;100.00;100357.48;105088;1253;60858;-51
2023/09/12 07:48:11;;;;;;;6.30;4.40;;;;;;;19.37;100.00;100358.55;105133;1253;73097;-52
2023/09/12 07:50:38;;;;;;;9.70;4.20;;;;;;;19.46;100.00;100358.74;105060;1256;65645;-51
2023/09/12 07:53:06;;;;;;;5.90;3.80;;;;;;;19.55;100.00;100356.30;105092;1257;71544;-53
2023/09/12 07:55:45;;;;;;;6.50;2.80;;;;;;;19.62;100.00;100357.34;104938;1251;60454;-53
2023/09/12 07:58:13;;;;;;;5.30;2.40;;;;;;;19.73;100.00;100356.19;105546;1251;60579;-52
2023/09/12 08:00:41;;;;;;;4.30;3.10;;;;;;;19.82;100.00;100350.61;105080;1251;73845;-51
2023/09/12 08:03:09;;;;;;;4.60;2.30;;;;;;;19.91;100.00;100350.98;105631;1256;65125;-51
2023/09/12 08:05:36;;;;;;;3.30;2.40;;;;;;;20.01;100.00;100351.60;105050;1253;71283;-52
2023/09/12 08:08:04;;;;;;;5.00;2.20;;;;;;;20.11;100.00;100351.44;105072;1254;60556;-52
2023/09/12 08:10:31;;;;;;;3.70;1.60;;;;;;;20.17;100.00;100352.70;104959;1254;60956;-51
2023/09/12 08:12:58;;;;;;;3.10;2.10;;;;;;;20.23;100.00;100350.95;104867;1251;74281;-51
2023/09/12 08:15:26;;;;;;;2.00;1.40;;;;;;;20.31;100.00;100352.92;104924;1251;64577;-51
2023/09/12 08:17:54;;;;;;;4.20;1.70;;;;;;;20.39;100.00;100354.86;105000;1257;73131;-52
2023/09/12 08:20:21;;;;;;;1.80;1.50;;;;;;;20.47;100.00;100350.56;105031;1257;60518;-52
2023/09/12 08:22:49;;;;;;;2.70;1.00;;;;;;;20.54;100.00;100351.85;105024;1251;60546;-52
2023/09/12 08:25:16;;;;;;;4.70;1.30;;;;;;;20.61;100.00;100349.84;104976;1251;73880;-52
2023/09/12 08:27:44;;;;;;;4.20;1.70;;;;;;;20.67;100.00;100352.55;105008;1257;67299;-49
2023/09/12 08:30:12;;;;;;;2.10;1.10;;;;;;;20.73;100.00;100356.78;105567;1253;72707;-52
2023/09/12 08:32:43;;;;;;;3.20;1.10;;;;;;;20.82;100.00;100358.86;104894;1257;61168;-53
2023/09/12 08:35:12;;;;;;;1.80;1.30;;;;;;;20.92;100.00;100362.77;105349;1251;60551;-52
2023/09/12 08:37:40;;;;;;;1.60;1.10;;;;;;;21.00;100.00;100358.99;105508;1256;74319;-53
2023/09/12 08:40:10;;;;;;;1.20;0.90;;;;;;;21.08;100.00;100360.16;105227;1251;67485;-52
2023/09/12 08:42:40;;;;;;;5.50;1.20;;;;;;;21.16;100.00;100358.02;104896;1254;72715;-51
2023/09/12 08:45:13;;;;;;;1.30;1.20;;;;;;;21.26;100.00;100358.17;105429;1257;60622;-53
2023/09/12 08:47:42;;;;;;;4.40;0.90;;;;;;;21.35;100.00;100357.77;106638;1253;60562;-51
2023/09/12 08:50:12;;;;;;;6.00;1.50;;;;;;;21.43;100.00;100357.66;104888;1259;74373;-51
2023/09/12 08:52:40;;;;;;;1.90;0.90;;;;;;;21.48;100.00;100361.39;105447;1254;66018;-51
2023/09/12 08:55:26;;;;;;;1.20;0.90;;;;;;;21.55;100.00;100356.98;105082;1256;72651;-53
2023/09/12 08:57:53;;;;;;;2.60;1.10;;;;;;;21.62;100.00;100359.50;105032;1253;61924;-52
2023/09/12 09:00:22;;;;;;;3.90;0.80;;;;;;;21.69;100.00;100355.57;104874;1253;60557;-53
2023/09/12 09:02:50;;;;;;;2.50;0.90;;;;;;;21.77;100.00;100359.70;106716;1258;72978;-51
2023/09/12 09:05:17;;;;;;;4.90;1.00;;;;;;;21.83;100.00;100356.45;104926;1253;66789;-51
2023/09/12 09:07:45;;;;;;;6.80;1.00;;;;;;;21.88;100.00;100359.10;105031;1254;70504;-53
2023/09/12 09:10:17;;;;;;;1.80;0.80;;;;;;;21.92;100.00;100359.52;104866;1253;60563;-51
2023/09/12 09:12:49;;;;;;;2.80;0.80;;;;;;;21.98;100.00;100362.12;108963;1253;58957;-53
2023/09/12 09:15:23;;;;;;;1.20;0.80;;;;;;;22.02;100.00;100362.70;109107;1252;73864;-53
2023/09/12 09:17:51;;;;;;;1.30;0.70;;;;;;;22.08;100.00;100369.59;109237;1253;66190;-52
2023/09/12 09:20:29;;;;;;;1.40;0.90;;;;;;;22.14;100.00;100365.65;108973;1253;70421;-53
2023/09/12 09:23:09;;;;;;;1.30;0.80;;;;;;;22.15;100.00;100367.38;109039;1257;60242;-53
2023/09/12 09:25:41;;;;;;;2.90;0.70;;;;;;;22.18;100.00;100366.89;109130;1252;58745;-54
2023/09/12 09:28:19;;;;;;;3.40;0.80;;;;;;;22.24;100.00;100367.08;109143;1256;73849;-53
2023/09/12 09:30:48;;;;;;;2.50;0.90;;;;;;;22.32;100.00;100365.73;109171;1252;66958;-54
2023/09/12 09:33:15;;;;;;;1.30;0.80;;;;;;;22.39;100.00;100364.14;109194;1253;71173;-53
2023/09/12 09:35:45;;;;;;;1.30;0.80;;;;;;;22.47;100.00;100362.74;109019;1253;60035;-54
2023/09/12 09:38:16;;;;;;;1.10;0.90;;;;;;;22.53;100.00;100360.19;109107;1252;61514;-54
2023/09/12 09:40:44;;;;;;;0.70;0.70;;;;;;;22.59;100.00;100360.17;109029;1257;72571;-52
2023/09/12 09:43:13;;;;;;;1.00;0.90;;;;;;;22.64;100.00;100357.75;109162;1252;65934;-53
2023/09/12 09:45:44;;;;;;;1.90;1.00;;;;;;;22.69;100.00;100357.31;109120;1256;71160;-53
2023/09/12 09:48:19;;;;;;;4.70;0.90;;;;;;;22.74;100.00;100356.52;108874;1253;58791;-53
2023/09/12 09:50:46;;;;;;;;;;;;;;;22.79;100.00;100357.18;109002;1253;59097;-53
2023/09/12 09:53:14;;;;;;;3.40;0.90;;;;;;;22.82;100.00;100360.02;108981;1253;72644;-52
2023/09/12 09:55:42;;;;;;;1.90;1.00;;;;;;;22.87;100.00;100359.80;105363;1254;65616;-52
2023/09/12 09:58:16;;;;;;;1.40;0.80;;;;;;;22.88;100.00;100358.39;105148;1253;71448;-52
2023/09/12 10:00:44;;;;;;;2.40;0.90;;;;;;;22.89;100.00;100355.89;105774;1253;197044;-53
2023/09/12 10:04:54;;;;;;;1.00;0.90;;;;;;;22.93;100.00;100387.73;101775;1292;601744;-52
2023/09/12 10:07:25;;;;;;;1.30;0.80;;;;;;;23.00;100.00;100377.54;103795;1274;60039;-53
2023/09/12 10:09:52;;;;;;;2.40;0.90;;;;;;;23.08;100.00;100376.90;104127;1274;59199;-50
2023/09/12 10:12:20;;;;;;;2.80;0.70;;;;;;;23.13;100.00;100370.71;104023;1271;72368;-49
2023/09/12 10:14:47;;;;;;;9.90;1.00;;;;;;;23.17;100.00;100371.10;103728;1270;69541;-53
2023/09/12 10:17:14;;;;;;;5.20;1.00;;;;;;;23.21;100.00;100370.02;104114;1268;71401;-53
2023/09/12 10:19:43;;;;;;;2.90;0.70;;;;;;;23.25;100.00;100368.74;103812;1270;262419;-52
2023/09/12 10:22:34;;;;;;;2.00;0.70;;;;;;;23.26;100.00;100361.64;107013;1265;60201;-51
2023/09/12 10:25:02;;;;;;;2.60;0.70;;;;;;;23.29;100.00;100361.54;104516;1266;70826;-53
2023/09/12 10:27:30;;;;;;;6.40;0.90;;;;;;;23.31;100.00;100362.27;104106;1271;66847;-52
2023/09/12 10:29:59;;;;;;;1.20;0.70;;;;;;;23.33;100.00;100361.77;103991;1266;71451;-52
2023/09/12 10:32:27;;;;;;;1.20;0.80;;;;;;;23.36;100.00;100355.05;106969;1265;59784;-52
2023/09/12 10:34:54;;;;;;;1.70;0.80;;;;;;;23.34;100.00;100358.17;103965;1270;59651;-52
2023/09/12 10:37:22;;;;;;;0.80;0.70;;;;;;;23.31;100.00;100355.00;103950;1265;73476;-52
2023/09/12 10:39:49;;;;;;;3.10;0.70;;;;;;;23.33;100.00;100356.42;104079;1271;67246;-51
2023/09/12 10:42:17;;;;;;;6.70;0.80;;;;;;;23.37;100.00;100353.47;107968;1264;71448;-53
2023/09/12 10:44:44;;;;;;;2.70;0.80;;;;;;;23.41;100.00;100359.16;107512;1268;59293;-52
2023/09/12 10:47:12;;;;;;;3.20;0.80;;;;;;;23.48;100.00;100359.48;104187;1272;59731;-52
2023/09/12 10:49:39;;;;;;;2.70;1.00;;;;;;;23.54;100.00;100355.99;104155;1271;73048;-52
2023/09/12 10:52:07;;;;;;;3.90;0.70;;;;;;;23.56;100.00;100356.50;104204;1266;66991;-51
2023/09/12 10:54:38;;;;;;;1.60;0.60;;;;;;;23.59;100.00;100354.98;104041;1269;71655;-52
2023/09/12 10:57:06;;;;;;;1.70;0.60;;;;;;;23.62;100.00;100350.88;104084;1267;59746;-53
2023/09/12 10:59:37;;;;;;;2.10;0.70;;;;;;;23.65;100.00;100350.96;108148;1265;58804;-52
2023/09/12 11:02:30;;;;;;;2.00;0.80;;;;;;;23.67;100.00;100346.14;105387;1266;71746;-52
2023/09/12 11:04:59;;;;;;;5.70;0.80;;;;;;;23.68;100.00;100345.65;104142;1269;67864;-53
2023/09/12 11:07:43;;;;;;;2.00;0.70;;;;;;;23.69;100.00;100343.05;104110;1266;71480;-52
2023/09/12 11:10:20;;;;;;;3.90;0.90;;;;;;;23.72;100.00;100343.48;104553;1271;60485;-51
2023/09/12 11:12:51;;;;;;;1.50;0.80;;;;;;;23.76;100.00;100339.77;104075;1268;60209;-52
2023/09/12 11:15:23;;;;;;;2.70;0.60;;;;;;;23.80;100.00;100338.02;107919;1267;73013;-53